createdAt,value
2023-03-11T00:00:53.906Z,12.17
2023-03-11T00:02:27.126Z,12.08
2023-03-11T00:04:00.862Z,11.98
2023-03-11T00:05:36.496Z,11.84
2023-03-11T00:07:10.830Z,11.83
2023-03-11T00:08:43.988Z,11.83
2023-03-11T00:10:17.131Z,11.80
2023-03-11T00:11:50.439Z,11.78
2023-03-11T00:13:22.823Z,11.79
2023-03-11T00:14:57.352Z,11.77
2023-03-11T00:16:30.740Z,11.77
2023-03-11T00:18:04.703Z,11.76
2023-03-11T00:19:37.760Z,11.75
2023-03-11T00:21:17.040Z,11.76
2023-03-11T00:22:51.260Z,11.73
2023-03-11T00:24:24.694Z,11.74
2023-03-11T00:25:59.954Z,11.74
2023-03-11T00:27:33.258Z,11.75
2023-03-11T00:29:06.542Z,11.70
2023-03-11T00:30:43.210Z,11.73
2023-03-11T00:32:16.619Z,11.66
2023-03-11T00:33:50.495Z,11.63
2023-03-11T00:35:27.069Z,11.64
2023-03-11T00:37:00.289Z,11.63
2023-03-11T00:38:33.614Z,11.66
2023-03-11T00:40:08.854Z,11.61
2023-03-11T00:41:42.310Z,11.59
2023-03-11T00:43:16.241Z,11.56
2023-03-11T00:44:49.336Z,11.61
2023-03-11T00:46:24.236Z,11.67
2023-03-11T00:47:57.933Z,11.70
2023-03-11T00:49:31.423Z,11.70
2023-03-11T00:51:04.865Z,11.70
2023-03-11T00:52:38.954Z,11.65
2023-03-11T00:54:12.320Z,11.59
2023-03-11T00:55:45.620Z,11.55
2023-03-11T00:57:18.484Z,11.51
2023-03-11T00:58:51.722Z,11.46
2023-03-11T01:00:26.366Z,11.47
2023-03-11T01:02:01.109Z,11.49
2023-03-11T01:03:34.228Z,11.48
2023-03-11T01:05:07.624Z,11.51
2023-03-11T01:06:45.640Z,11.46
2023-03-11T01:08:19.630Z,11.40
2023-03-11T01:09:51.770Z,11.36
2023-03-11T01:11:24.948Z,11.34
2023-03-11T01:12:57.252Z,11.29
2023-03-11T01:14:30.685Z,11.29
2023-03-11T01:16:04.348Z,11.30
2023-03-11T01:17:38.902Z,11.27
2023-03-11T01:19:12.214Z,11.28
2023-03-11T01:20:45.567Z,11.29
2023-03-11T01:22:19.075Z,11.30
2023-03-11T01:23:52.241Z,11.25
2023-03-11T01:25:26.410Z,11.25
2023-03-11T01:26:58.814Z,11.22
2023-03-11T01:28:31.949Z,11.21
2023-03-11T01:30:05.594Z,11.16
2023-03-11T01:31:38.950Z,11.06
2023-03-11T01:33:16.814Z,11.02
2023-03-11T01:34:49.923Z,10.89
2023-03-11T01:36:23.070Z,10.87
2023-03-11T01:37:56.728Z,10.87
2023-03-11T01:39:30.226Z,10.85
2023-03-11T01:41:03.791Z,10.79
2023-03-11T01:42:35.899Z,10.74
2023-03-11T01:44:12.924Z,10.71
2023-03-11T01:46:14.857Z,10.79
2023-03-11T01:47:49.466Z,10.81
2023-03-11T01:49:24.544Z,10.82
2023-03-11T01:50:58.446Z,10.79
2023-03-11T01:52:30.945Z,10.78
2023-03-11T01:54:06.775Z,10.81
2023-03-11T01:55:39.480Z,10.81
2023-03-11T01:57:15.212Z,10.81
2023-03-11T01:58:52.422Z,10.82
2023-03-11T02:00:24.864Z,10.80
2023-03-11T02:02:06.093Z,10.77
2023-03-11T02:03:41.700Z,10.74
2023-03-11T02:05:16.401Z,10.70
2023-03-11T02:06:50.349Z,10.76
2023-03-11T02:08:25.125Z,10.76
2023-03-11T02:09:58.974Z,10.79
2023-03-11T02:11:32.641Z,10.77
2023-03-11T02:13:07.447Z,10.77
2023-03-11T02:14:43.339Z,10.77
2023-03-11T02:16:17.576Z,10.81
2023-03-11T02:17:49.855Z,10.83
2023-03-11T02:19:37.663Z,10.84
2023-03-11T02:21:22.749Z,10.84
2023-03-11T02:22:57.734Z,10.80
2023-03-11T02:24:40.351Z,10.77
2023-03-11T02:26:18.252Z,10.75
2023-03-11T02:27:55.466Z,10.75
2023-03-11T02:29:33.955Z,10.72
2023-03-11T02:31:07.231Z,10.71
2023-03-11T02:32:44.285Z,10.75
2023-03-11T02:34:23.970Z,10.75
2023-03-11T02:35:57.695Z,10.81
2023-03-11T02:37:30.099Z,10.81
2023-03-11T02:39:10.531Z,10.78
2023-03-11T02:40:55.747Z,10.80
2023-03-11T02:42:33.722Z,10.83
2023-03-11T02:44:11.778Z,10.84
2023-03-11T02:45:46.692Z,10.84
2023-03-11T02:47:20.294Z,10.80
2023-03-11T02:48:55.465Z,10.89
2023-03-11T02:50:29.543Z,10.91
2023-03-11T02:52:02.760Z,10.88
2023-03-11T02:53:40.472Z,10.91
2023-03-11T02:55:14.664Z,10.96
2023-03-11T02:56:47.932Z,10.99
2023-03-11T02:58:21.073Z,11.02
2023-03-11T02:59:54.929Z,11.03
2023-03-11T03:01:28.266Z,11.05
2023-03-11T03:03:00.667Z,11.05
2023-03-11T03:04:34.742Z,11.02
2023-03-11T03:06:08.847Z,10.99
2023-03-11T03:07:41.961Z,10.99
2023-03-11T03:09:15.358Z,10.95
2023-03-11T03:10:50.130Z,10.89
2023-03-11T03:12:24.241Z,10.86
2023-03-11T03:13:57.487Z,10.81
2023-03-11T03:15:32.371Z,10.76
2023-03-11T03:17:06.663Z,10.71
2023-03-11T03:18:40.417Z,10.69
2023-03-11T03:20:15.678Z,10.70
2023-03-11T03:21:53.935Z,10.74
2023-03-11T03:23:28.383Z,10.76
2023-03-11T03:25:02.107Z,10.83
2023-03-11T03:26:37.286Z,10.83
2023-03-11T03:28:11.680Z,10.73
2023-03-11T03:29:47.727Z,10.63
2023-03-11T03:31:22.891Z,10.63
2023-03-11T03:32:56.620Z,10.58
2023-03-11T03:34:28.818Z,10.51
2023-03-11T03:36:02.037Z,10.42
2023-03-11T03:37:43.492Z,10.35
2023-03-11T03:39:18.733Z,10.34
2023-03-11T03:40:56.146Z,10.30
2023-03-11T03:42:30.092Z,10.27
2023-03-11T03:44:04.056Z,10.24
2023-03-11T03:45:38.196Z,10.27
2023-03-11T03:47:12.142Z,10.24
2023-03-11T03:48:45.442Z,10.18
2023-03-11T03:50:19.872Z,10.11
2023-03-11T03:51:55.039Z,10.03
2023-03-11T03:53:37.455Z,10.01
2023-03-11T03:55:11.287Z,9.91
2023-03-11T03:56:45.494Z,9.90
2023-03-11T03:58:19.029Z,9.89
2023-03-11T03:59:52.322Z,9.92
2023-03-11T04:01:25.486Z,9.92
2023-03-11T04:03:01.114Z,9.93
2023-03-11T04:04:45.564Z,9.98
2023-03-11T04:06:20.021Z,10.05
2023-03-11T04:07:56.767Z,10.14
2023-03-11T04:09:30.364Z,10.18
2023-03-11T04:11:03.908Z,10.18
2023-03-11T04:12:39.458Z,10.22
2023-03-11T04:14:14.012Z,10.23
2023-03-11T04:15:53.600Z,10.24
2023-03-11T04:17:26.903Z,10.24
2023-03-11T04:19:04.793Z,10.27
2023-03-11T04:20:40.140Z,10.31
2023-03-11T04:22:14.055Z,10.32
2023-03-11T04:23:47.370Z,10.34
2023-03-11T04:25:22.665Z,10.39
2023-03-11T04:26:55.961Z,10.38
2023-03-11T04:28:28.753Z,10.48
2023-03-11T04:30:01.933Z,10.49
2023-03-11T04:31:36.740Z,10.53
2023-03-11T04:33:12.374Z,10.55
2023-03-11T04:34:47.230Z,10.59
2023-03-11T04:36:20.466Z,10.61
2023-03-11T04:37:53.672Z,10.63
2023-03-11T04:39:26.498Z,10.64
2023-03-11T04:41:01.777Z,10.66
2023-03-11T04:42:35.616Z,10.67
2023-03-11T04:44:07.776Z,10.69
2023-03-11T04:45:41.589Z,10.68
2023-03-11T04:47:16.776Z,10.65
2023-03-11T04:48:50.357Z,10.64
2023-03-11T04:50:25.342Z,10.65
2023-03-11T04:51:58.660Z,10.63
2023-03-11T04:53:33.409Z,10.63
2023-03-11T04:55:07.928Z,10.58
2023-03-11T04:56:41.345Z,10.60
2023-03-11T04:58:14.710Z,10.56
2023-03-11T04:59:48.394Z,10.51
2023-03-11T05:01:22.106Z,10.44
2023-03-11T05:02:54.364Z,10.39
2023-03-11T05:04:28.306Z,10.36
2023-03-11T05:06:02.552Z,10.38
2023-03-11T05:07:36.859Z,10.38
2023-03-11T05:09:10.864Z,10.38
2023-03-11T05:10:46.315Z,10.40
2023-03-11T05:12:19.694Z,10.39
2023-03-11T05:13:56.550Z,10.44
2023-03-11T05:15:31.188Z,10.49
2023-03-11T05:17:06.809Z,10.50
2023-03-11T05:18:40.725Z,10.48
2023-03-11T05:20:15.687Z,10.51
2023-03-11T05:21:50.742Z,10.58
2023-03-11T05:23:23.874Z,10.62
2023-03-11T05:24:57.908Z,10.65
2023-03-11T05:26:31.460Z,10.67
2023-03-11T05:28:04.759Z,10.70
2023-03-11T05:29:40.830Z,10.75
2023-03-11T05:31:17.028Z,10.88
2023-03-11T05:32:50.832Z,10.95
2023-03-11T05:34:24.957Z,11.06
2023-03-11T05:36:05.780Z,11.15
2023-03-11T05:37:41.572Z,11.26
2023-03-11T05:39:13.904Z,11.36
2023-03-11T05:40:47.138Z,11.48
2023-03-11T05:42:21.525Z,11.55
2023-03-11T05:43:58.306Z,11.54
2023-03-11T05:45:31.442Z,11.50
2023-03-11T05:47:07.144Z,11.47
2023-03-11T05:48:41.692Z,11.46
2023-03-11T05:50:15.207Z,11.53
2023-03-11T05:51:51.055Z,11.58
2023-03-11T05:53:25.645Z,11.68
2023-03-11T05:54:59.283Z,11.78
2023-03-11T05:56:35.003Z,11.87
2023-03-11T05:58:08.819Z,12.01
2023-03-11T05:59:41.983Z,12.14
2023-03-11T06:01:18.030Z,12.30
2023-03-11T06:02:51.492Z,12.47
2023-03-11T06:04:26.250Z,12.76
2023-03-11T06:05:59.606Z,13.06
2023-03-11T06:07:32.850Z,13.30
2023-03-11T06:09:06.725Z,13.60
2023-03-11T06:10:39.901Z,13.84
2023-03-11T06:12:13.264Z,14.12
2023-03-11T06:14:02.910Z,14.37
2023-03-11T06:15:37.219Z,14.58
2023-03-11T06:17:10.894Z,14.84
2023-03-11T06:18:44.079Z,15.10
2023-03-11T06:20:17.278Z,15.28
2023-03-11T06:21:50.781Z,15.40
2023-03-11T06:23:24.573Z,15.57
2023-03-11T06:24:59.344Z,15.69
2023-03-11T06:26:31.848Z,15.70
2023-03-11T06:28:05.346Z,15.67
2023-03-11T06:29:38.670Z,15.70
2023-03-11T06:31:13.837Z,15.63
2023-03-11T06:32:47.176Z,15.63
2023-03-11T06:34:20.881Z,15.70
2023-03-11T06:36:00.911Z,15.75
2023-03-11T06:37:37.318Z,15.78
2023-03-11T06:39:14.270Z,15.81
2023-03-11T06:40:49.136Z,15.82
2023-03-11T06:42:24.004Z,15.73
2023-03-11T06:43:59.807Z,15.71
2023-03-11T06:45:34.315Z,15.76
2023-03-11T06:47:08.352Z,15.68
2023-03-11T06:48:42.244Z,15.60
2023-03-11T06:50:15.508Z,15.49
2023-03-11T06:51:48.662Z,15.34
2023-03-11T06:53:22.824Z,15.05
2023-03-11T06:54:55.921Z,14.91
2023-03-11T06:56:30.396Z,14.73
2023-03-11T06:58:11.291Z,14.56
2023-03-11T06:59:45.094Z,14.54
2023-03-11T07:01:22.355Z,14.62
2023-03-11T07:02:58.758Z,14.48
2023-03-11T07:04:32.751Z,14.38
2023-03-11T07:06:07.777Z,14.40
2023-03-11T07:07:40.922Z,14.39
2023-03-11T07:09:14.239Z,14.43
2023-03-11T07:11:01.438Z,14.47
2023-03-11T07:12:36.776Z,14.51
2023-03-11T07:14:10.195Z,14.57
2023-03-11T07:15:47.252Z,14.59
2023-03-11T07:17:20.398Z,14.61
2023-03-11T07:18:59.151Z,14.67
2023-03-11T07:20:32.285Z,14.75
2023-03-11T07:22:05.418Z,14.76
2023-03-11T07:23:38.511Z,14.68
2023-03-11T07:25:12.038Z,14.54
2023-03-11T07:26:45.128Z,14.53
2023-03-11T07:28:20.189Z,14.56
2023-03-11T07:29:53.431Z,14.55
2023-03-11T07:31:29.026Z,14.57
2023-03-11T07:33:02.144Z,14.60
2023-03-11T07:34:35.387Z,14.64
2023-03-11T07:36:10.190Z,14.78
2023-03-11T07:37:43.649Z,14.86
2023-03-11T07:39:19.146Z,14.96
2023-03-11T07:40:59.460Z,15.00
2023-03-11T07:42:33.998Z,15.06
2023-03-11T07:44:09.965Z,15.12
2023-03-11T07:45:43.176Z,15.19
2023-03-11T07:47:16.329Z,15.25
2023-03-11T07:48:51.382Z,15.32
2023-03-11T07:50:24.902Z,15.41
2023-03-11T07:51:58.041Z,15.32
2023-03-11T07:53:31.332Z,15.34
2023-03-11T07:55:04.621Z,15.31
2023-03-11T07:56:38.988Z,15.41
2023-03-11T07:58:12.232Z,15.43
2023-03-11T07:59:46.759Z,15.39
2023-03-11T08:01:22.483Z,15.41
2023-03-11T08:02:55.836Z,15.52
2023-03-11T08:04:28.953Z,15.58
2023-03-11T08:06:02.291Z,15.69
2023-03-11T08:07:35.447Z,15.72
2023-03-11T08:09:10.601Z,15.77
2023-03-11T08:10:43.774Z,15.69
2023-03-11T08:12:17.768Z,15.72
2023-03-11T08:13:51.820Z,15.60
2023-03-11T08:15:31.032Z,15.62
2023-03-11T08:17:05.473Z,15.68
2023-03-11T08:18:38.611Z,15.73
2023-03-11T08:20:13.035Z,15.95
2023-03-11T08:21:46.717Z,16.19
2023-03-11T08:23:20.092Z,16.43
2023-03-11T08:24:54.980Z,16.57
2023-03-11T08:26:27.332Z,16.66
2023-03-11T08:28:01.008Z,16.83
2023-03-11T08:29:34.102Z,16.90
2023-03-11T08:31:15.302Z,17.04
2023-03-11T08:32:49.358Z,17.30
2023-03-11T08:34:22.964Z,17.64
2023-03-11T08:35:56.566Z,18.01
2023-03-11T08:37:31.577Z,18.23
2023-03-11T08:39:05.347Z,18.47
2023-03-11T08:40:38.742Z,18.62
2023-03-11T08:42:11.934Z,18.88
2023-03-11T08:43:47.273Z,19.20
2023-03-11T08:45:23.262Z,19.28
2023-03-11T08:47:02.066Z,19.57
2023-03-11T08:48:39.385Z,19.88
2023-03-11T08:50:16.929Z,20.27
2023-03-11T08:51:50.161Z,20.63
2023-03-11T08:53:23.892Z,20.61
2023-03-11T08:54:57.028Z,20.78
2023-03-11T08:56:30.578Z,20.46
2023-03-11T08:58:04.150Z,19.90
2023-03-11T08:59:38.172Z,19.74
2023-03-11T09:01:13.491Z,19.45
2023-03-11T09:02:48.809Z,19.34
2023-03-11T09:04:21.988Z,19.33
2023-03-11T09:05:58.873Z,19.52
2023-03-11T09:07:31.984Z,20.02
2023-03-11T09:09:05.367Z,20.36
2023-03-11T09:10:38.503Z,20.27
2023-03-11T09:12:14.334Z,20.03
2023-03-11T09:13:47.788Z,19.77
2023-03-11T09:15:21.133Z,19.67
2023-03-11T09:16:54.312Z,19.57
2023-03-11T09:18:29.725Z,19.42
2023-03-11T09:20:03.577Z,19.31
2023-03-11T09:21:37.706Z,19.06
2023-03-11T09:23:13.521Z,19.10
2023-03-11T09:24:47.420Z,19.21
2023-03-11T09:26:20.575Z,19.05
2023-03-11T09:27:54.006Z,19.10
2023-03-11T09:29:27.151Z,18.94
2023-03-11T09:31:00.941Z,18.87
2023-03-11T09:32:34.176Z,19.01
2023-03-11T09:34:08.888Z,19.08
2023-03-11T09:35:42.143Z,19.16
2023-03-11T09:37:15.587Z,19.05
2023-03-11T09:38:49.952Z,19.15
2023-03-11T09:40:26.650Z,19.24
2023-03-11T09:42:05.013Z,19.19
2023-03-11T09:44:06.557Z,19.46
2023-03-11T09:45:47.308Z,19.61
2023-03-11T09:47:39.686Z,19.87
2023-03-11T09:49:23.787Z,20.03
2023-03-11T09:51:00.491Z,20.19
2023-03-11T09:52:42.311Z,20.08
2023-03-11T09:54:15.720Z,19.80
2023-03-11T09:55:51.847Z,19.79
2023-03-11T09:57:29.495Z,19.77
2023-03-11T09:59:06.102Z,19.85
2023-03-11T10:00:40.021Z,19.88
2023-03-11T10:02:17.894Z,19.55
2023-03-11T10:03:53.153Z,19.58
2023-03-11T10:05:29.751Z,19.26
2023-03-11T10:07:07.558Z,19.25
2023-03-11T10:08:46.992Z,19.25
2023-03-11T10:10:20.365Z,19.37
2023-03-11T10:12:12.101Z,19.36
2023-03-11T10:13:54.080Z,19.50
2023-03-11T10:15:40.030Z,19.49
2023-03-11T10:17:22.938Z,19.75
2023-03-11T10:19:08.825Z,19.85
2023-03-11T10:20:55.196Z,19.73
2023-03-11T10:22:34.760Z,19.37
2023-03-11T10:24:34.603Z,19.14
2023-03-11T10:26:15.081Z,18.99
2023-03-11T10:27:53.026Z,18.95
2023-03-11T10:29:29.936Z,18.87
2023-03-11T10:31:08.961Z,19.09
2023-03-11T10:32:47.801Z,19.19
2023-03-11T10:34:27.285Z,19.20
2023-03-11T10:36:06.134Z,19.18
2023-03-11T10:37:49.845Z,19.23
2023-03-11T10:39:24.536Z,19.32
2023-03-11T10:41:03.461Z,19.41
2023-03-11T10:42:37.360Z,19.47
2023-03-11T10:44:15.508Z,19.52
2023-03-11T10:45:51.288Z,19.60
2023-03-11T10:47:26.224Z,19.51
2023-03-11T10:48:59.488Z,19.46
2023-03-11T10:50:36.802Z,19.04
2023-03-11T10:52:11.976Z,18.93
2023-03-11T10:53:48.311Z,19.01
2023-03-11T10:55:21.454Z,19.13
2023-03-11T10:56:58.025Z,19.06
2023-03-11T10:58:32.572Z,19.04
2023-03-11T11:00:12.460Z,18.98
2023-03-11T11:01:56.574Z,18.84
2023-03-11T11:03:30.464Z,18.89
2023-03-11T11:05:22.911Z,18.87
2023-03-11T11:06:56.198Z,18.85
2023-03-11T11:08:31.985Z,18.83
2023-03-11T11:10:16.709Z,18.71
2023-03-11T11:12:04.273Z,18.71
2023-03-11T11:13:37.548Z,18.77
2023-03-11T11:15:22.981Z,18.62
2023-03-11T11:16:56.304Z,18.70
2023-03-11T11:18:33.606Z,18.61
2023-03-11T11:20:18.333Z,18.39
2023-03-11T11:21:52.487Z,17.87
2023-03-11T11:23:28.577Z,16.93
2023-03-11T11:25:03.129Z,16.38
2023-03-11T11:26:36.894Z,15.85
2023-03-11T11:28:17.893Z,15.68
2023-03-11T11:30:14.784Z,15.61
2023-03-11T11:31:49.016Z,15.55
2023-03-11T11:33:27.002Z,15.59
2023-03-11T11:35:02.264Z,15.61
2023-03-11T11:36:38.697Z,15.66
2023-03-11T11:38:12.670Z,15.73
2023-03-11T11:39:52.001Z,15.81
2023-03-11T11:41:28.439Z,15.89
2023-03-11T11:43:05.944Z,15.90
2023-03-11T11:44:39.540Z,15.80
2023-03-11T11:46:21.307Z,15.57
2023-03-11T11:47:58.514Z,15.41
2023-03-11T11:49:34.514Z,15.30
2023-03-11T11:51:16.632Z,15.28
2023-03-11T11:52:57.577Z,15.32
2023-03-11T11:54:35.547Z,15.36
2023-03-11T11:56:08.953Z,15.46
2023-03-11T11:57:43.825Z,15.55
2023-03-11T11:59:20.033Z,15.61
2023-03-11T12:01:16.434Z,15.67
2023-03-11T12:03:05.645Z,15.78
2023-03-11T12:04:56.282Z,15.90
2023-03-11T12:06:34.691Z,16.00
2023-03-11T12:08:15.712Z,16.15
2023-03-11T12:09:57.573Z,16.30
2023-03-11T12:11:37.376Z,16.44
2023-03-11T12:13:42.267Z,16.53
2023-03-11T12:15:20.896Z,16.66
2023-03-11T12:16:58.386Z,16.79
2023-03-11T12:18:37.301Z,16.89
2023-03-11T12:20:16.081Z,16.97
2023-03-11T12:22:06.784Z,17.00
2023-03-11T12:23:55.128Z,17.07
2023-03-11T12:25:34.205Z,17.09
2023-03-11T12:27:22.216Z,17.12
2023-03-11T12:29:01.142Z,17.21
2023-03-11T12:30:38.137Z,17.26
2023-03-11T12:32:23.584Z,17.33
2023-03-11T12:34:00.243Z,17.36
2023-03-11T12:35:36.269Z,17.46
2023-03-11T12:37:17.357Z,17.50
2023-03-11T12:38:51.979Z,17.59
2023-03-11T12:40:51.370Z,17.65
2023-03-11T12:42:26.354Z,17.45
2023-03-11T12:44:05.983Z,17.50
2023-03-11T12:45:49.994Z,17.50
2023-03-11T12:47:29.125Z,17.63
2023-03-11T12:49:13.676Z,17.77
2023-03-11T12:50:47.409Z,17.82
2023-03-11T12:52:27.586Z,17.88
2023-03-11T12:54:20.879Z,17.98
2023-03-11T12:56:04.402Z,18.15
2023-03-11T12:57:49.464Z,18.26
2023-03-11T12:59:48.303Z,18.25
2023-03-11T13:01:35.690Z,18.25
2023-03-11T13:03:36.254Z,18.23
2023-03-11T13:05:20.961Z,18.24
2023-03-11T13:07:32.841Z,18.21
2023-03-11T13:09:06.185Z,18.32
2023-03-11T13:10:41.696Z,18.33
2023-03-11T13:12:41.374Z,18.38
2023-03-11T13:14:30.494Z,18.40
2023-03-11T13:16:38.698Z,18.45
2023-03-11T13:18:25.433Z,18.45
2023-03-11T13:19:59.971Z,18.52
2023-03-11T13:21:39.761Z,18.58
2023-03-11T13:23:24.252Z,18.63
2023-03-11T13:24:57.577Z,18.69
2023-03-11T13:26:38.238Z,18.66
2023-03-11T13:28:33.437Z,18.66
2023-03-11T13:30:15.796Z,18.61
2023-03-11T13:32:03.457Z,18.59
2023-03-11T13:33:53.666Z,18.60
2023-03-11T13:35:41.842Z,18.63
2023-03-11T13:37:30.656Z,18.63
2023-03-11T13:39:21.205Z,18.73
2023-03-11T13:40:54.896Z,18.89
2023-03-11T13:42:31.602Z,18.97
2023-03-11T13:44:15.876Z,18.96
2023-03-11T13:45:54.869Z,19.03
2023-03-11T13:47:30.112Z,18.98
2023-03-11T13:49:08.114Z,18.91
2023-03-11T13:50:45.422Z,18.93
2023-03-11T13:52:26.748Z,18.79
2023-03-11T13:54:04.274Z,18.71
2023-03-11T13:55:42.288Z,18.57
2023-03-11T13:57:25.844Z,18.45
2023-03-11T13:59:17.735Z,18.40
2023-03-11T14:00:55.241Z,18.27
2023-03-11T14:02:28.960Z,18.18
2023-03-11T14:04:02.212Z,18.12
2023-03-11T14:05:38.708Z,18.11
2023-03-11T14:07:16.239Z,18.09
2023-03-11T14:08:55.183Z,18.06
2023-03-11T14:10:30.428Z,18.10
2023-03-11T14:12:07.962Z,18.13
2023-03-11T14:13:43.083Z,18.08
2023-03-11T14:15:19.350Z,18.06
2023-03-11T14:16:54.395Z,17.98
2023-03-11T14:18:34.665Z,18.03
2023-03-11T14:20:14.950Z,18.20
2023-03-11T14:21:50.730Z,18.26
2023-03-11T14:23:28.340Z,18.32
2023-03-11T14:25:06.198Z,18.33
2023-03-11T14:26:39.513Z,18.42
2023-03-11T14:28:21.385Z,18.36
2023-03-11T14:29:54.900Z,18.31
2023-03-11T14:31:33.062Z,18.16
2023-03-11T14:33:26.319Z,18.04
2023-03-11T14:35:00.351Z,18.03
2023-03-11T14:36:42.556Z,18.06
2023-03-11T14:38:22.795Z,18.08
2023-03-11T14:39:55.887Z,18.04
2023-03-11T14:41:29.809Z,17.96
2023-03-11T14:43:06.125Z,17.96
2023-03-11T14:44:42.550Z,17.72
2023-03-11T14:46:21.656Z,17.47
2023-03-11T14:48:00.832Z,17.32
2023-03-11T14:49:36.112Z,17.34
2023-03-11T14:51:16.721Z,17.31
2023-03-11T14:52:53.911Z,17.50
2023-03-11T14:54:30.921Z,17.45
2023-03-11T14:56:08.002Z,17.61
2023-03-11T14:57:44.278Z,17.60
2023-03-11T14:59:23.189Z,17.62
2023-03-11T15:01:03.636Z,17.58
2023-03-11T15:02:47.047Z,17.51
2023-03-11T15:04:29.373Z,17.43
2023-03-11T15:06:07.367Z,17.45
2023-03-11T15:07:40.693Z,17.42
2023-03-11T15:09:16.043Z,17.33
2023-03-11T15:11:21.409Z,17.23
2023-03-11T15:13:06.330Z,17.20
2023-03-11T15:14:52.779Z,17.11
2023-03-11T15:16:31.573Z,16.99
2023-03-11T15:18:05.594Z,16.86
2023-03-11T15:19:38.777Z,16.68
2023-03-11T15:21:19.100Z,16.57
2023-03-11T15:22:58.314Z,16.47
2023-03-11T15:24:34.124Z,16.44
2023-03-11T15:26:07.576Z,16.44
2023-03-11T15:27:41.316Z,16.35
2023-03-11T15:29:16.685Z,16.36
2023-03-11T15:30:50.210Z,16.32
2023-03-11T15:32:37.581Z,16.25
2023-03-11T15:34:27.443Z,16.16
2023-03-11T15:36:00.710Z,16.09
2023-03-11T15:37:36.017Z,16.03
2023-03-11T15:39:14.561Z,15.86
2023-03-11T15:40:54.120Z,15.83
2023-03-11T15:42:27.836Z,15.76
2023-03-11T15:44:03.145Z,15.58
2023-03-11T15:45:38.166Z,15.38
2023-03-11T15:47:15.414Z,15.32
2023-03-11T15:48:48.999Z,15.30
2023-03-11T15:50:37.213Z,15.19
2023-03-11T15:52:13.953Z,15.02
2023-03-11T15:53:48.947Z,14.90
2023-03-11T15:55:22.591Z,14.90
2023-03-11T15:56:57.390Z,14.78
2023-03-11T15:58:32.263Z,14.71
2023-03-11T16:00:08.806Z,14.60
2023-03-11T16:01:42.294Z,14.53
2023-03-11T16:03:15.918Z,14.38
2023-03-11T16:04:49.323Z,14.26
2023-03-11T16:06:23.132Z,14.09
2023-03-11T16:07:56.697Z,13.83
2023-03-11T16:09:33.016Z,13.34
2023-03-11T16:11:07.331Z,13.15
2023-03-11T16:12:42.640Z,12.98
2023-03-11T16:14:17.568Z,12.93
2023-03-11T16:15:50.792Z,12.85
2023-03-11T16:17:24.636Z,12.75
2023-03-11T16:18:57.976Z,12.73
2023-03-11T16:20:34.440Z,12.66
2023-03-11T16:22:07.644Z,12.52
2023-03-11T16:23:51.171Z,12.46
2023-03-11T16:25:28.902Z,12.32
2023-03-11T16:27:02.063Z,12.37
2023-03-11T16:28:35.419Z,12.20
2023-03-11T16:30:10.131Z,12.26
2023-03-11T16:31:43.329Z,12.12
2023-03-11T16:33:16.550Z,12.09
2023-03-11T16:34:49.933Z,12.04
2023-03-11T16:36:23.530Z,12.10
2023-03-11T16:37:56.833Z,12.14
2023-03-11T16:39:30.052Z,12.01
2023-03-11T16:41:05.136Z,11.99
2023-03-11T16:42:38.476Z,11.93
2023-03-11T16:44:11.849Z,11.97
2023-03-11T16:45:45.043Z,11.90
2023-03-11T16:47:18.510Z,11.90
2023-03-11T16:48:53.567Z,11.88
2023-03-11T16:50:27.247Z,11.84
2023-03-11T16:52:00.485Z,11.75
2023-03-11T16:53:33.718Z,11.64
2023-03-11T16:55:07.738Z,11.68
2023-03-11T16:56:42.451Z,11.68
2023-03-11T16:58:16.583Z,11.54
2023-03-11T16:59:50.182Z,11.53
2023-03-11T17:01:23.760Z,11.48
2023-03-11T17:02:57.265Z,11.45
2023-03-11T17:04:30.524Z,11.42
2023-03-11T17:06:04.643Z,11.37
2023-03-11T17:07:39.700Z,11.32
2023-03-11T17:09:13.293Z,11.29
2023-03-11T17:10:47.089Z,11.28
2023-03-11T17:12:23.202Z,11.27
2023-03-11T17:14:13.675Z,11.31
2023-03-11T17:15:58.544Z,11.33
2023-03-11T17:17:31.725Z,11.27
2023-03-11T17:19:05.002Z,11.27
2023-03-11T17:20:40.547Z,11.35
2023-03-11T17:22:14.325Z,11.31
2023-03-11T17:23:47.589Z,11.30
2023-03-11T17:25:20.839Z,11.21
2023-03-11T17:26:53.977Z,11.16
2023-03-11T17:28:31.109Z,11.16
2023-03-11T17:30:07.169Z,11.10
2023-03-11T17:31:40.391Z,11.02
2023-03-11T17:33:13.631Z,11.04
2023-03-11T17:34:46.985Z,11.07
2023-03-11T17:36:20.470Z,11.09
2023-03-11T17:37:53.746Z,11.11
2023-03-11T17:39:26.941Z,11.04
2023-03-11T17:41:00.650Z,11.05
2023-03-11T17:42:33.848Z,11.12
2023-03-11T17:44:08.710Z,11.16
2023-03-11T17:45:42.574Z,11.19
2023-03-11T17:47:15.853Z,11.23
2023-03-11T17:48:49.663Z,11.23
2023-03-11T17:50:23.153Z,11.22
2023-03-11T17:51:56.374Z,11.20
2023-03-11T17:53:29.499Z,11.19
2023-03-11T17:55:02.651Z,11.21
2023-03-11T17:56:35.871Z,11.22
2023-03-11T17:58:09.136Z,11.26
2023-03-11T17:59:43.857Z,11.22
2023-03-11T18:01:19.010Z,11.20
2023-03-11T18:02:52.634Z,11.17
2023-03-11T18:04:25.847Z,11.16
2023-03-11T18:06:00.868Z,11.13
2023-03-11T18:07:33.916Z,11.13
2023-03-11T18:09:07.496Z,11.15
2023-03-11T18:10:40.683Z,11.05
2023-03-11T18:12:13.856Z,11.04
2023-03-11T18:13:47.567Z,11.09
2023-03-11T18:15:22.805Z,11.02
2023-03-11T18:16:55.965Z,11.06
2023-03-11T18:18:29.794Z,11.11
2023-03-11T18:20:03.380Z,11.15
2023-03-11T18:21:36.915Z,11.16
2023-03-11T18:23:10.083Z,11.12
2023-03-11T18:24:43.405Z,11.17
2023-03-11T18:26:19.578Z,11.21
2023-03-11T18:27:53.239Z,11.21
2023-03-11T18:29:26.375Z,11.23
2023-03-11T18:31:07.080Z,11.16
2023-03-11T18:32:40.383Z,11.18
2023-03-11T18:34:14.945Z,11.25
2023-03-11T18:35:48.205Z,11.30
2023-03-11T18:37:21.430Z,11.33
2023-03-11T18:38:56.545Z,11.34
2023-03-11T18:40:29.836Z,11.26
2023-03-11T18:42:03.199Z,11.22
2023-03-11T18:43:36.320Z,11.26
2023-03-11T18:45:12.255Z,11.27
2023-03-11T18:46:46.902Z,11.19
2023-03-11T18:48:20.099Z,11.20
2023-03-11T18:49:54.858Z,11.18
2023-03-11T18:51:29.696Z,11.16
2023-03-11T18:53:03.012Z,11.17
2023-03-11T18:54:36.285Z,11.13
2023-03-11T18:56:14.028Z,11.10
2023-03-11T18:57:47.580Z,11.03
2023-03-11T18:59:21.583Z,11.03
2023-03-11T19:00:54.868Z,11.03
2023-03-11T19:02:29.950Z,11.02
2023-03-11T19:04:03.135Z,11.02
2023-03-11T19:05:36.245Z,10.97
2023-03-11T19:07:09.580Z,10.97
2023-03-11T19:08:43.623Z,10.95
2023-03-11T19:10:20.056Z,10.93
2023-03-11T19:11:53.420Z,10.96
2023-03-11T19:13:40.685Z,11.00
2023-03-11T19:15:19.323Z,11.04
2023-03-11T19:16:52.688Z,11.04
2023-03-11T19:18:27.565Z,11.02
2023-03-11T19:20:00.772Z,10.92
2023-03-11T19:21:33.941Z,10.97
2023-03-11T19:23:07.624Z,10.95
2023-03-11T19:24:41.021Z,10.90
2023-03-11T19:26:14.719Z,10.92
2023-03-11T19:27:48.190Z,10.95
2023-03-11T19:29:23.780Z,10.94
2023-03-11T19:30:59.466Z,10.92
2023-03-11T19:32:33.936Z,10.87
2023-03-11T19:34:08.794Z,10.87
2023-03-11T19:35:41.929Z,10.89
2023-03-11T19:37:17.226Z,10.78
2023-03-11T19:38:50.374Z,10.79
2023-03-11T19:40:23.772Z,10.81
2023-03-11T19:41:58.876Z,10.76
2023-03-11T19:43:32.552Z,10.75
2023-03-11T19:45:06.707Z,10.71
2023-03-11T19:46:40.098Z,10.67
2023-03-11T19:48:13.384Z,10.58
2023-03-11T19:49:48.201Z,10.49
2023-03-11T19:51:21.518Z,10.49
2023-03-11T19:52:55.000Z,10.53
2023-03-11T19:54:28.158Z,10.48
2023-03-11T19:56:03.942Z,10.41
2023-03-11T19:57:37.174Z,10.32
2023-03-11T19:59:10.554Z,10.32
2023-03-11T20:00:45.053Z,10.32
2023-03-11T20:02:18.292Z,10.36
2023-03-11T20:03:53.672Z,10.27
2023-03-11T20:05:28.183Z,10.32
2023-03-11T20:07:03.448Z,10.33
2023-03-11T20:08:37.826Z,10.29
2023-03-11T20:10:12.358Z,10.18
2023-03-11T20:11:46.898Z,10.08
2023-03-11T20:13:22.648Z,10.03
2023-03-11T20:14:55.817Z,9.98
2023-03-11T20:16:29.104Z,9.95
2023-03-11T20:18:03.899Z,9.93
2023-03-11T20:19:37.295Z,9.90
2023-03-11T20:21:13.831Z,9.83
2023-03-11T20:22:47.265Z,9.78
2023-03-11T20:24:20.744Z,9.70
2023-03-11T20:25:53.937Z,9.65
2023-03-11T20:27:27.506Z,9.59
2023-03-11T20:29:00.781Z,9.56
2023-03-11T20:30:34.450Z,9.49
2023-03-11T20:32:07.752Z,9.52
2023-03-11T20:33:41.276Z,9.50
2023-03-11T20:35:15.318Z,9.45
2023-03-11T20:36:51.513Z,9.38
2023-03-11T20:38:24.731Z,9.39
2023-03-11T20:40:00.619Z,9.28
2023-03-11T20:41:37.414Z,9.26